International TAF

Brunei, China, Hong Kong, Malaysia, Philippines, Taiwan

The availability of aerodrome forecasts from overseas locations is dependent on the regular international exchange of data. Some locations may at times be absent. If this problem persists, please advise webav@bom.gov.au

 back to top

ZSPD 07/04/2020 UTC

TAF ZSPD 070305Z 0706/0806 12003MPS 5000 BR SCT020 TX20/0806Z
TN08/0721Z

WIDD 07/04/2020 UTC

TAF WIDD 070500Z 0706/0806 06007KT 9999 FEW014
PROB30 TEMPO 0710/0713 5000 -TSRA FEW014CB

WAMM 07/04/2020 UTC

TAF WAMM 070500Z 0706/0812 36010KT 9999 SCT021
BECMG 0709/0711 VRB02KT
BECMG 0723/0801 36010KT

WBSB 07/04/2020 UTC

TAF WBSB 070500Z 0706/0812 35007KT 9999 SCT014 FEW015CB BKN140
TEMPO 0706/0710 7000 -TSRA
BECMG 0712/0714 18002KT

WBKK 07/04/2020 UTC

TAF WBKK 070500Z 0706/0806 30007KT 9999 FEW014
TEMPO 0707/0711 5000 TSRA FEW013 FEW016CB SCT035
BECMG 0711/0713 11005KT

WBGG 07/04/2020 UTC

TAF WBGG 070500Z 0706/0806 VRB03KT 9999 SCT016
TEMPO 0706/0710 4000 TSRA FEW015CB

VHHH 07/04/2020 UTC

TAF VHHH 070500Z 0706/0812 VRB05KT 9999 FEW015 SCT040 TX21/0706Z
TX22/0806Z TN18/0723Z TEMPO 0706/0710 30010KT BECMG 0715/0717
08010KT

VMMC 07/04/2020 UTC

TAF VMMC 070503Z 0706/0812 07008KT 9000 FEW015 SCT030
TEMPO 0706/0710 01010KT

ZGSZ 07/04/2020 UTC

TAF ZGSZ 070308Z 0706/0806 30004MPS 6000 FEW015 TX23/0806Z
TN17/0722Z BECMG 0710/0711 09004MPS

RCTP 07/04/2020 UTC

TAF RCTP 070500Z 0706/0812 04013KT 9999 FEW010 BKN020
TEMPO 0709/0715 FEW016 BKN032
BECMG 0715/0717 FEW015 BKN032
TEMPO 0718/0724 05008KT
TEMPO 0801/0807 04018KT

RCKH 07/04/2020 UTC

TAF RCKH 070500Z 0706/0812 36005KT 8000 FEW016 BKN032
TEMPO 0706/0712 32010KT
TEMPO 0719/0802 05005KT 5000 BR
BECMG 0802/0804 25007KT

ZGGG 07/04/2020 UTC

TAF ZGGG 070313Z 0706/0806 04003MPS 8000 SCT040 TX22/0707Z
TN15/0722Z

ZBAA 07/04/2020 UTC

TAF ZBAA 070301Z 0706/0806 18004MPS CAVOK TX19/0707Z TN08/0721Z

ZSSS 07/04/2020 UTC

TAF ZSSS 070301Z 0706/0806 06004MPS 5000 BR NSC TX20/0806Z
TN09/0721Z BECMG 0710/0711 16004MPS

ZBTJ 07/04/2020 UTC

TAF ZBTJ 070300Z 0706/0806 15004MPS CAVOK TX16/0806Z TN05/0722Z
BECMG 0802/0803 09006MPS

ZBYN 07/04/2020 UTC

TAF ZBYN 070306Z 0706/0806 21004MPS 6000 NSC TX20/0707Z TN06/0722Z
TEMPO 0707/0711 -SHRA FEW030CB

ZSHC 07/04/2020 UTC

TAF ZSHC 070306Z 0706/0806 09003MPS 3000 HZ NSC TX21/0806Z
TN09/0721Z

ZSOF 07/04/2020 UTC

TAF ZSOF 070302Z 0706/0806 12003MPS 5000 HZ NSC TX22/0806Z
TN09/0722Z

ZWWW 07/04/2020 UTC

TAF ZWWW 070305Z 0706/0806 01004MPS CAVOK TX25/0709Z TN14/0723Z
BECMG 0713/0714 18004MPS BECMG 0803/0804 36004MPS

ZYTL 07/04/2020 UTC

TAF ZYTL 070308Z 0706/0806 35004G11MPS 5000 BR FEW033 TX14/0706Z
TN06/0720Z

RPLL 07/04/2020 UTC

TAF COR RPLL 070500Z 0706/0812 11010KT 9999 FEW025 SCT300 TX35/0706Z
TN26/0721
TEMPO 0706/0712 26012KT FEW023 SCT090

RPVM 07/04/2020 UTC

TAF RPVM 070500Z 0706/0812 05007KT 9999 FEW020 TEMPO 0706/0712
03005KT

RPMZ 07/04/2020 UTC

TAF RPMZ 070500Z 0706/0806 31006KT 9999 FEW017 SCT300 TEMPO 0706/0712

27004KT VCSH FEW016CB FEW017 SCT090

Australian International

The availability of aerodrome forecasts from overseas locations is dependent on the regular international exchange of data. Some locations may at times be absent. If this problem persists, please advise webav@bom.gov.au

 back to top

YMML 07/04/2020 UTC

TAF YMML 070448Z 0706/0812
19010KT 9999 SCT030 BKN045
FM071400 19006KT 9999 -SHRA SCT015 BKN020
FM080000 17012KT 9999 SCT030 BKN050
TEMPO 0716/0722 3000 DZ SCT006 BKN010
RMK
T 14 13 12 11 Q 1023 1024 1024 1023

YSSY 07/04/2020 UTC

TAF YSSY 070508Z 0706/0812
16013KT 9999 SCT030
FM070900 13008KT 9999 SCT025
FM071400 25005KT 9999 SCT025
FM072300 16013KT 9999 -SHRA FEW015 SCT025
INTER 0801/0812 4000 SHRA BKN015
RMK
T 20 19 18 17 Q 1020 1021 1021 1020

YBBN 07/04/2020 UTC

TAF AMD YBBN 070817Z 0708/0812
16012KT 9999 -SHRA SCT035
FM071000 20008KT 9999 -SHRA SCT025 BKN050
FM080000 14013KT 9999 -SHRA SCT035
INTER 0711/0802 3000 SHRA BKN014
RMK
T 24 21 20 19 Q 1016 1018 1017 1017

YSCB 07/04/2020 UTC

TAF AMD YSCB 070510Z 0706/0806
30005KT 9999 BKN040
FM070900 08011KT 9999 SCT040
BECMG 0714/0716 17006KT 9999 -SHRA SCT020 BKN030
TEMPO 0715/0722 9999 BKN020
TEMPO 0722/0805 3000 SHRA BKN010
RMK
T 17 14 12 11 Q 1021 1021 1022 1022

YBCS 07/04/2020 UTC

TAF YBCS 070542Z 0706/0806
12012KT 9999 SCT025 SCT035
FM070800 17005KT 9999 SCT020 SCT030
FM072300 12012KT 9999 SCT025 SCT035
INTER 0706/0710 4000 SHRA BKN020
INTER 0716/0800 4000 SHRA BKN015
RMK
T 28 25 25 24 Q 1011 1012 1014 1012

YBAS 07/04/2020 UTC

TAF YBAS 070454Z 0706/0806
14010KT CAVOK
FM071600 34005KT CAVOK
FM080000 10010KT CAVOK
RMK
T 25 24 20 18 Q 1017 1017 1019 1018

YBMA 07/04/2020 UTC

TAF YBMA 070516Z 0706/0718
25010KT CAVOK
FM071200 18010KT CAVOK
RMK
T 32 27 22 20 Q 1012 1013 1015 1014

YPAD 07/04/2020 UTC

TAF YPAD 070458Z 0706/0812
21008KT 9999 FEW035 BKN045
FM070700 12010KT 9999 SCT040
FM080500 15012KT 9999 FEW040
RMK
T 19 17 15 14 Q 1021 1022 1023 1022

YPDN 07/04/2020 UTC

TAF AMD YPDN 070531Z 0706/0812
33008KT 9999 SCT040
FM072000 09005KT 9999 SCT020
FM080000 05008KT 9999 SCT030
FM080700 33006KT 9999 SCT030
PROB30 TEMPO 0716/0723 VRB20G35KT 1000 TSRA BKN010 SCT020CB
RMK
T 33 30 29 28 Q 1008 1008 1010 1010

YPTN 07/04/2020 UTC

TAF YPTN 070438Z 0706/0806
12008KT CAVOK
FM072100 09003KT 9999 FEW020
FM080000 10008KT 9999 SCT035
RMK
T 35 32 27 26 Q 1008 1008 1011 1011

YPPH 07/04/2020 UTC

TAF YPPH 070526Z 0706/0812
05012KT CAVOK
FM071000 22012KT CAVOK
FM071400 05014G25KT CAVOK
FM080000 03010KT CAVOK
FM080600 22012KT CAVOK
RMK FM071400 MOD TURB BLW 3000FT TL080000
T 33 31 25 23 Q 1009 1009 1010 1011

YPLM 07/04/2020 UTC

TAF YPLM 070519Z 0706/0806
25013KT CAVOK
FM071400 21008KT CAVOK
FM080000 14008KT CAVOK
RMK
T 33 33 28 25 Q 1009 1008 1010 1011

YCAR 07/04/2020 UTC

TAF YCAR 070306Z 0704/0712
21012KT CAVOK
RMK
T 28 28 25 Q 1011 1009 1010

YPCC 07/04/2020 UTC

TAF YPCC 070518Z 0706/0806
22010KT 9999 -SHRA SCT020 BKN040
INTER 0706/0802 3000 SHRA BKN010
RMK
T 30 30 28 28 Q 1009 1007 1008 1010

YPPD 07/04/2020 UTC

TAF YPPD 070524Z 0706/0806
31010KT CAVOK
FM071600 15006KT CAVOK
FM080300 32012KT CAVOK
PROB30 TEMPO 0804/0806 VRB25G35KT 1000 TSRA BKN012 SCT030CB
RMK
T 33 32 28 27 Q 1009 1009 1010 1010

YBTL 07/04/2020 UTC

TAF YBTL 070507Z 0706/0806
06014KT 9999 FEW030
FM071000 11008KT 9999 FEW022 SCT030
FM080100 06014KT 9999 FEW035
RMK
T 29 27 26 25 Q 1011 1012 1014 1013

YMHB 07/04/2020 UTC

TAF YMHB 070535Z 0706/0806
22010KT 9999 -SHRA BKN030
FM072100 19010KT 9999 NSW SCT020 SCT035
TEMPO 0709/0712 4000 SHRA BKN012
RMK
T 16 14 12 12 Q 1020 1021 1024 1024

YPXM 07/04/2020 UTC

TAF YPXM 070522Z 0706/0806
32008KT 9999 -SHRA SCT010 SCT020
FM071800 32008KT 9999 -SHRA FEW010 SCT013
FM080400 32008KT 9999 -SHRA SCT013
INTER 0706/0718 3000 SHRA SCT005 BKN008
TEMPO 0718/0806 3000 SHRA SCT005 BKN008
RMK
T 28 27 25 25 Q 1010 1009 1011 1012

New Zealand

The availability of aerodrome forecasts from overseas locations is dependent on the regular international exchange of data. Some locations may at times be absent. If this problem persists, please advise webav@bom.gov.au

 back to top

NZAA 07/04/2020 UTC

TAF NZAA 070500Z 0706/0806 22010KT 9999 FEW045
BECMG 0706/0708 VRB02KT
FM072200 33010KT 9999 -SHRA FEW025 BKN035
TEMPO 0803/0806 6000 SHRA
BECMG 0804/0806 22010KT

NZWN 07/04/2020 UTC

TAF NZWN 070500Z 0706/0806 36020G30KT 9999 SCT020 BKN040
FM070800 35015KT 9999 -RA SCT010 BKN020
TEMPO 0712/0717 6000 SHRA BKN009
BECMG 0715/0717 18015G25KT
FM072200 18010KT 9999 FEW030

NZCH 07/04/2020 UTC

TAF NZCH 070500Z 0706/0806 20015G25KT 9999 -SHRA SCT015 BKN030
TEMPO 0706/0709 7000 SHRA BKN009
TEMPO 0709/0715 BKN009
BECMG 0713/0715 VRB02KT
BECMG 0721/0723 08012KT

YLHI 07/04/2020 UTC

TAF AMD YLHI 070515Z 0706/0806
17014KT 9999 -SHRA SCT025
INTER 0706/0715 5000 SHRA BKN015
RMK FM070600 MOD TURB BLW 5000FT TL071200
T 22 20 20 20 Q 1015 1017 1018 1017

YSNF 07/04/2020 UTC

TAF AMD YSNF 070515Z 0706/0806
08011KT 9999 FEW020 SCT030
FM071300 36007KT 9999 FEW020 SCT030
FM072100 29008KT 9999 -SHRA SCT020
FM080000 19014KT 9999 -SHRA SCT020
INTER 0711/0803 4000 SHRA BKN015
RMK
T 21 20 20 19 Q 1012 1013 1014 1012

Indonesia, Malaysia, Myanmar, Singapore, Thailand, Vietnam

The availability of aerodrome forecasts from overseas locations is dependent on the regular international exchange of data. Some locations may at times be absent. If this problem persists, please advise webav@bom.gov.au

 back to top

WADA

TAF not available.

WAAA 07/04/2020 UTC

TAF WAAA 070500Z 0706/0812 30010KT 9999 SCT018
TEMPO 0707/0711 7000 -TSRA FEW017CB
BECMG 0712/0714 11005KT 8000

WIII 07/04/2020 UTC

TAF WIII 070500Z 0706/0812 32010KT 9999 SCT020 TEMPO 0707/0711 3000
-TSRA FEW018CB BECMG 0713/0715 19004KT

WIHH 07/04/2020 UTC

TAF WIHH 070500Z 0706/0806 27010KT 6000 SCT022
TEMPO 0708/0711 3000 -TSRA FEW018CB BKN019
BECMG 0712/0714 18005KT 5000 HZ

WIMM 07/04/2020 UTC

TAF WIMM 070500Z 0706/0806 01008KT 9999 SCT017
BECMG 0713/0714 VRB03KT 3000 HZ
BECMG 0802/0804 35006KT 9999

WIPP 07/04/2020 UTC

TAF WIPP 070500Z 0706/0806 36007KT 9999 SCT010
TEMPO 0714/0718 4000 -TSRA FEW010CB BKN010
TEMPO 0721/0724 3000 BR
BECMG 0802/0804 BKN010

WIKD

TAF not available.

WARR 07/04/2020 UTC

TAF WARR 070500Z 0706/0806 12010KT 9999 SCT020 PROB40 TEMPO 0707/0711 30010KT 4000 TSRA SCT018CB BECMG 0712/0714 25005KT 3000 HZ BECMG 0801/0803 09010KT 9999 NSW

WADD 07/04/2020 UTC

TAF WADD 070500Z 0706/0806 33005KT 9999 SCT016
BECMG 0711/0713 VRB05KT

WRRA

TAF not available.

WALL 07/04/2020 UTC

TAF WALL 070500Z 0706/0812 34005KT 8000 FEW018CB SCT018 TEMPO 0708/0712 7000 RA

WSSS 07/04/2020 UTC

TAF AMD WSSS 070800Z 0708/0812 01007KT 9999 FEW015 SCT020

WSAP 07/04/2020 UTC

TAF AMD WSAP 070800Z 0708/0812 01007KT 9999 FEW015 SCT020

WMKK 07/04/2020 UTC

TAF WMKK 070500Z 0706/0812 28006KT 9999 FEW018
PROB30 TEMPO 0708/0712 4000 TSRA FEW010 FEW017CB SCT018
PROB30 TEMPO 0715/0719 3000 TSRA FEW003 FEW016CB SCT026

WMSA 07/04/2020 UTC

TAF WMSA 070500Z 0706/0806 26006KT 9999 FEW017CB
TEMPO 0708/0712 26010KT 4000 TSRA FEW010 FEW017CB SCT018
PROB30 TEMPO 0716/0719 3000 TSRA FEW005 FEW016CB SCT024

WMKP 07/04/2020 UTC

TAF WMKP 070500Z 0706/0806 22008KT 9000 FEW020
TEMPO 0710/0713 6000 -TSRA FEW017CB
BECMG 0711/0713 VRB03KT 8000 FEW025
BECMG 0722/0800 05005KT 9999 FEW020

WMKJ 07/04/2020 UTC

TAF WMKJ 070500Z 0706/0806 05006KT 9999 FEW017CB
TEMPO 0707/0711 04010KT 4000 TSRA FEW010 FEW017CB SCT018
PROB30 TEMPO 0720/0800 5000 RA FEW010 FEW017CB SCT022

WMKD 07/04/2020 UTC

TAF AMD WMKD 070733Z 0707/0806 03005KT 9999 SCT019
TEMPO 0708/0712 6000 -TSRA FEW016CB

WMKB 07/04/2020 UTC

TAF WMKB 070500Z 0706/0806 29010KT 9999 FEW020
PROB30 TEMPO 0708/0712 6000 -TSRA FEW017CB
BECMG 0714/0716 07005KT 7000 FEW024

VTBD 07/04/2020 UTC

TAF VTBD 070500Z 0706/0812 18010KT 9999 FEW020

VTBS 07/04/2020 UTC

TAF VTBS 070500Z 0706/0812 19010KT 9000 FEW020

VTBU 07/04/2020 UTC

TAF VTBU 070500Z 0706/0806 17010KT 9999 FEW020
BECMG 0717/0719 23005KT
BECMG 0800/0802 17010KT

VTCC 07/04/2020 UTC

TAF VTCC 070500Z 0706/0812 16005KT 8000 FEW035
BECMG 0721/0723 4000 HZ
BECMG 0803/0805 7000 NSW

VTSP 07/04/2020 UTC

TAF VTSP 070500Z 0706/0812 28010KT 9999 FEW020
BECMG 0714/0716 00000KT
BECMG 0800/0802 08006KT
BECMG 0804/0806 28010KT

VTSS 07/04/2020 UTC

TAF VTSS 070500Z 0706/0806 06010KT 9999 SCT020
PROB40 TEMPO 0707/0713 VRB10G20KT 5000 TSRA FEW016CB SCT018
BKN100
BECMG 0713/0715 26003KT
BECMG 0802/0804 06010KT

VVTS 07/04/2020 UTC

TAF VVTS 070500Z 0706/0812 14008KT 9999 SCT017
TEMPO 0708/0711 5000 TSRA SCT015 FEW017CB

VDPP 07/04/2020 UTC

TAF VDPP 070500Z 0706/0724 18007KT 9999 SCT017
TEMPO 0707/0712 SCT015 FEW017CB

VVNB 07/04/2020 UTC

TAF VVNB 070500Z 0706/0806 35005KT 8000 SCT015 BKN050
TEMPO 0711/0714 4500 SHRA SCT010 FEW025TCU OVC040
TEMPO 0721/0801 4000 TSRA SCT010 FEW025CB OVC040

VYYY 07/04/2020 UTC

TAF VYYY 070500Z 0706/0806 19008KT 8000 SCT018 SCT280
BECMG 0710/0712 6000 HZ
TEMPO 0714/0720 25008KT

South America

The availability of aerodrome forecasts from overseas locations is dependent on the regular international exchange of data. Some locations may at times be absent. If this problem persists, please advise webav@bom.gov.au

 back to top

SAEZ 07/04/2020 UTC

TAF SAEZ 070500Z 0706/0806 22005KT CAVOK TX19/0719Z TN06/0710Z
BECMG 0712/0715 18010KT
BECMG 0720/0722 18005KT

SAVC 07/04/2020 UTC

TAF SAVC 070500Z 0706/0806 30010KT CAVOK TX20/0718Z TN05/0710Z BECMG
0713/0715 VRB05KT

SCIE 07/04/2020 UTC

TAF SCIE 070400Z 0706/0806 19005KT CAVOK TX22/0718Z TN09/0711Z BECMG
0715/0717 23012KT BECMG 0802/0804 23004KT

SACO 07/04/2020 UTC

TAF SACO 070500Z 0706/0806 VRB03KT CAVOK TX22/0718Z TN08/0710Z
BECMG 0710/0712 05010KT
BECMG 0800/0802 34005KT

SCIP

TAF not available.

SAZM 07/04/2020 UTC

TAF SAZM 070500Z 0706/0806 25010KT 9999 FEW030 SCT050 TX17/0618Z
TN06/0708Z
BECMG 0710/0712 20020KT 9999 SCT030 PROB40
TEMPO 0711/0715 8000 RA SCT020 BKN050
BECMG 0801/0804 18010KT 9999 SCT020

SAME 07/04/2020 UTC

TAF SAME 070500Z 0706/0806 18005KT CAVOK TX24/0720Z TN07/0710Z

SUMU 07/04/2020 UTC

TAF SUMU 070530Z 0706/0806 21015KT 9999 SCT020 TX18/0718Z TN13/0710Z
PROB40 TEMPO 0706/0710 21015G25KT

SAZN 07/04/2020 UTC

TAF SAZN 070500Z 0706/0806 VRB03KT CAVOK TX21/0719Z TN04/0710Z
BECMG 0712/0715 05010KT
BECMG 0800/0802 11005KT

SCTE 07/04/2020 UTC

TAF SCTE 070406Z 0706/0806 17004KT CAVOK
TN00/0711Z TX17/0719Z
TEMPO 0709/0713 0800 FG BCFG BKN002
BECMG 0714/0716 16012KT
BECMG 0801/0803 VRB03KT 3000 BR OVC010

SCCI 07/04/2020 UTC

TAF SCCI 070401Z 0706/0806 30017KT 9999 FEW040
TN06/0709Z TX14/0720Z
BECMG 0711/0713 34015KT
TEMPO 0711/0719 9000 -SHRA SCT025 BKN045
TEMPO 0721/0806 31022G33KT

SAWG 07/04/2020 UTC

TAF SAWG 070500Z 0706/0806 32015KT CAVOK TX18/0718Z TN09/0710Z BECMG
0712/0714 9999 SCT030 BKN090 PROB40 TEMPO 0716/0721 BKN030 BECMG
0800/0802 CAVOK

SAAR 07/04/2020 UTC

TAF SAAR 070500Z 0706/0806 16005KT CAVOK TX21/0719Z TN06/0710Z
BECMG 0712/0715 09005KT
BECMG 0723/0801 VRB03KT

SAZS 07/04/2020 UTC

TAF SAZS 070500Z 0706/0806 VRB05KT CAVOK TX17/0719Z TN01/0711Z
BECMG 0712/0715 09005KT
BECMG 0800/0802 12005KT

SCEL 07/04/2020 UTC

TAF SCEL 070400Z 0706/0806 17005KT CAVOK TX31/0719Z TN09/0711Z TEMPO
0712/0714 7000 NSC BECMG 0716/0718 19010KT BECMG 0802/0804
17005KT

SAWH 07/04/2020 UTC

TAF SAWH 070500Z 0706/0806 32010KT 9999 SCT045 SCT080 TX12/0718Z
TN06/0709Z PROB40 TEMPO 0716/0720 -RA BKN030 BKN090 BECMG 0720/0722
8000 RA BKN030 OVC050 BECMG 0801/0803 32020G30KT

Guam, Japan, Korea

The availability of aerodrome forecasts from overseas locations is dependent on the regular international exchange of data. Some locations may at times be absent. If this problem persists, please advise webav@bom.gov.au

 back to top

PGUA 07/04/2020 UTC

TAF PGUA 070200Z 0702/0808 08015KT 9999 FEW012 QNH2984INS
TX31/0706Z TN23/0716Z

PGUM 07/04/2020 UTC

TAF PGUM 070552Z 0706/0812 08013G20KT P6SM SCT025
FM070800 08007KT P6SM SCT024

PGSN 07/04/2020 UTC

TAF PGSN 070552Z 0706/0806 07014G22KT P6SM SCT020 BKN050
FM070900 08007KT P6SM SCT024

PTRO 07/04/2020 UTC

TAF PTRO 070552Z 0706/0806 08010KT P6SM VCSH SCT016 BKN120

RJOO

07/04/2020 UTC

TAF RJOO 070507Z 0706/0812 22007KT 9999 FEW035 BECMG 0708/0710
32004KT BECMG 0800/0803 22007KT BECMG 0806/0809 35009KT

RJOB 07/04/2020 UTC

TAF RJOB 070508Z 0706/0812 21006KT 9999 FEW030 BECMG 0712/0714
04004KT BECMG 0721/0800 24008KT BECMG 0809/0812 35005KT

RJGG 07/04/2020 UTC

TAF AMD RJGG 070705Z 0707/0812 22006KT 9999 FEW030 BECMG 0709/0711
36006KT BECMG 0800/0803 18010KT BECMG 0809/0812 32022KT

RJCC 07/04/2020 UTC

TAF RJCC 070505Z 0706/0812 34005KT 9999 FEW015 BKN030 BECMG
0713/0715 19005KT TEMPO 0715/0800 2000 BR FEW003 BKN005
BECMG 0809/0812 34006KT

RJSS 07/04/2020 UTC

TAF RJSS 070513Z 0706/0812 14013KT 9999 FEW030 SCT050 BECMG
0709/0711 24004KT BECMG 0800/0803 14010KT

RJFK 07/04/2020 UTC

TAF RJFK 070509Z 0706/0812 33009KT 9999 FEW040

RJAA 07/04/2020 UTC

TAF RJAA 070505Z 0706/0812 12006KT 9999 FEW020 BECMG 0715/0717
35004KT TEMPO 0718/0800 4000 BR BECMG 0800/0803 22010KT

RJBB 07/04/2020 UTC

TAF RJBB 070511Z 0706/0812 22006KT 9999 FEW040 BECMG 0710/0712
12004KT BECMG 0800/0803 24006KT BECMG 0809/0812 01010KT

RJTT 07/04/2020 UTC

TAF RJTT 070505Z 0706/0812 18008KT 9999 FEW030 BECMG 0714/0716
34008KT BECMG 0800/0803 18016KT TEMPO 0806/0812 20020G30KT

RJFF 07/04/2020 UTC

TAF RJFF 070507Z 0706/0812 31012KT 9999 FEW040 BECMG 0710/0712
15004KT BECMG 0800/0803 32011KT

RJFT 07/04/2020 UTC

TAF RJFT 070508Z 0706/0812 25006KT 9999 FEW045 BECMG 0709/0711
07003KT BECMG 0721/0800 24006KT

RJFU 07/04/2020 UTC

TAF RJFU 070505Z 0706/0812 31012KT 9999 FEW040 BECMG 0712/0714
14003KT BECMG 0721/0800 31010KT

ROAH 07/04/2020 UTC

TAF ROAH 070505Z 0706/0812 04014KT 9999 FEW025 BKN045

RKSS 07/04/2020 UTC

TAF RKSS 070500Z 0706/0812 27010KT 9999 FEW030
TN02/0721Z TX15/0806Z
TEMPO 0706/0709 26015G25KT
BECMG 0711/0712 33010KT
BECMG 0802/0803 30015G28KT
BECMG 0810/0811 33010KT

RKSI 07/04/2020 UTC

TAF RKSI 070500Z 0706/0812 27010KT 9999 FEW030
TN04/0721Z TX13/0806Z
BECMG 0708/0709 31015G25KT CAVOK
BECMG 0714/0715 33012KT
BECMG 0803/0804 31015G25KT
TEMPO 0805/0809 29017G35KT

RKSM 07/04/2020 UTC

TAF RKSM 070500Z 0706/0812 30006KT 9999 SCT030 TX19/0707Z
TN03/0721Z

RKPK 07/04/2020 UTC

TAF RKPK 070500Z 0706/0812 18010KT 9999 FEW030
TN04/0721Z TX19/0806Z
BECMG 0710/0711 30006KT
BECMG 0804/0805 18010KT

RKPC 07/04/2020 UTC

TAF RKPC 070500Z 0706/0812 26007KT CAVOK TN08/0720Z TX15/0805Z BECMG
0719/0720 35008KT

Indonesia, Pakistan, Singapore, India, Sri Lanka, United Arab Emirates

The availability of aerodrome forecasts from overseas locations is dependent on the regular international exchange of data. Some locations may at times be absent. If this problem persists, please advise webav@bom.gov.au

 back to top

WIII 07/04/2020 UTC

TAF WIII 070500Z 0706/0812 32010KT 9999 SCT020 TEMPO 0707/0711 3000
-TSRA FEW018CB BECMG 0713/0715 19004KT

WSSS 07/04/2020 UTC

TAF AMD WSSS 070800Z 0708/0812 01007KT 9999 FEW015 SCT020

VCBI 07/04/2020 UTC

TAF VCBI 070500Z 0706/0812 26008KT 9999 SCT018 TX33/0707Z
TN25/0800Z PROB30
TEMPO 0710/0715 6000 -TSRA/SHRA SCT016 FEW020CB
BECMG 0714/0716 VRB05KT

VECC 07/04/2020 UTC

TAF VECC 070500Z 0706/0812 23006KT 4000 HZ NSC
BECMG 0707/0709 5000 HZ
BECMG 0713/0715 3500 HZ
BECMG 0723/0801 00000KT 2600 HZ FEW100
BECMG 0804/0806 22005KT 4000 HZ FEW020 SCT100
PROB40 TEMPO 0808/0812 2000 TSRA SCT015 FEW025CB BKN090

VOMM 07/04/2020 UTC

TAF VOMM 070500Z 0706/0812 18005KT 6000 SCT020
BECMG 0707/0708 12010KT
BECMG 0715/0716 18005KT
BECMG 0721/0722 00000KT 5000 BR
TEMPO 0800/0803 3000 BR
BECMG 0803/0804 18005KT 6000
BECMG 0806/0807 12010KT

VOTV 07/04/2020 UTC

TAF VOTV 070500Z 0706/0812 29010KT 5000 HZ SCT015 FEW025CB BKN080
TEMPO 0711/0715 2500 TSRA RA FEW008 SCT012 FEW025CB BKN080 BECMG
0716/0718 VRB03KT 4000 HZ SCT015 BKN080 TEMPO 0800/0804 2000 RA
BR SCT008 SCT012 FEW025CB BKN080 BECMG 0805/0806 30010KT 5000 HZ
SCT012 FEW025CB SCT080 TEMPO 0809/0812 3000 .TSRA RA SCT008
SCT012 FEW025CB BKN080

VABB 07/04/2020 UTC

TAF VABB 070500Z 0706/0812 27008KT 6000 FEW020
BECMG 0713/0715 5000 HZ
BECMG 0721/0723 00000KT 3000 HZ
BECMG 0803/0805 17005KT 5000 HZ
BECMG 0807/0809 27008KT 6000

VAAH 07/04/2020 UTC

TAF VAAH 070500Z 0706/0812 27005KT 6000 NSC
BECMG 0708/0710 23006KT
BECMG 0712/0714 25007KT 4000 FU
BECMG 0801/0803 32005KT 2000 HZ
BECMG 0805/0807 27006KT 6000

VILK 07/04/2020 UTC

TAF VILK 070500Z 0706/0812 29006KT 6000 NSC
BECMG 0712/0714 VRB02KT 5000 HZ FEW100
BECMG 0720/0722 3000 HZ FEW020 SCT100
BECMG 0801/0803 29006KT 5000 HZ

VANP 07/04/2020 UTC

TAF VANP 070500Z 0706/0812 23005KT 6000 FEW250
TEMPO 0712/0715 32010G20KT 1500 -TSRA SCT020 FEW030CB BKN100
BECMG 0800/0802 05003KT 2000 HZ FEW100
BECMG 0804/0806 14005KT 5000 HZ FEW100
TEMPO 0811/0814 34010G20KT 1500 -TSRA SCT020 FEW030CB BKN100

VRMM 07/04/2020 UTC

TAF VRMM 070500Z 0706/0812 VRB02KT 9999 FEW018

VOHS 07/04/2020 UTC

TAF VOHS 070500Z 0706/0812 16006KT 6000 SCT020 SCT100 TEMPO
0709/0716 FEW030CB BECMG 0720/0722 15006KT 5000 HZ FEW020 TEMPO
0800/0803 VRB03KT 3000 HZ BR SCT015 SCT100 BECMG 0803/0805
13006KT 6000 FEW020 SCT100

OPKC 07/04/2020 UTC

TAF OPKC 070400Z 0706/0812 25007G17KT 6000 NSC FM 071800Z 26007KT
6000 NSC TEMPO 0800/0804 30007KT 4000 FU NSC FM 080600Z
26007G17KT 6000 NSC

OBBI 07/04/2020 UTC

TAF OBBI 070500Z 0706/0812 VRB05KT CAVOK BECMG 0712/0714 12012KT

OMAA 07/04/2020 UTC

TAF OMAA 070500Z 0706/0812 20005KT 8000 NSC
BECMG 0706/0708 32010KT
BECMG 0717/0719 14005KT
BECMG 0809/0811 33012KT

OMDB 07/04/2020 UTC

TAF OMDB 070500Z 0706/0812 VRB02KT CAVOK
BECMG 0707/0709 30010KT
BECMG 0716/0718 VRB02KT
BECMG 0808/0810 31010KT

OOMS 07/04/2020 UTC

TAF OOMS 070500Z 0706/0812 02014KT 8000 NSC BECMG 0715/0717 VRB02KT
BECMG 0806/0808 04010KT

OMSJ 07/04/2020 UTC

TAF OMSJ 070500Z 0706/0812 VRB02KT CAVOK
BECMG 0708/0710 31010KT
BECMG 0716/0718 VRB02KT
BECMG 0808/0810 32012KT

Malawi, Mauritius, South Africa, Zambia, Zimbabwe

The availability of aerodrome forecasts from overseas locations is dependent on the regular international exchange of data. Some locations may at times be absent. If this problem persists, please advise webav@bom.gov.au

 back to top

FIMP 07/04/2020 UTC

TAF FIMP 070500Z 0706/0812 10012G25KT 9999 SCT016 TEMPO 0708/0715
7000 -SHRA FEW010 SCT015 BKN050

FMEE 07/04/2020 UTC

TAF FMEE 070500Z 0706/0812 11015KT 9999 SCT025 TEMPO 0721/0806 4500
SHRA BKN020

FLKK 07/04/2020 UTC

TAF FLKK 070400Z 0706/0812 07005KT CAVOK
BECMG 0710/0714 12010KT 9999 BKN035
FM071600 10005KT CAVOK

FWKI 07/04/2020 UTC

TAF FWKI 070400Z 0706/0812 00000KT 9999 FEW018 BECMG 0706/0708
05006KT FEW020 BECMG 0710/0712 SCT030 FM071400 08006KT CAVOK
BECMG 0806/0808 07006KT 9999 FEW015

FAOR 07/04/2020 UTC

TAF FAOR 070400Z 0706/0812 VRB03KT CAVOK
TX24/0713Z TN12/0804Z
BECMG 0708/0710 28012KT
BECMG 0710/0712 SCT045
PROB30 TEMPO 0712/0715 FEW045TCU
BECMG 0715/0717 18010KT CAVOK
BECMG 0800/0802 12010KT
BECMG 0802/0804 04012KT BKN007
PROB40 TEMPO 0804/0806 4000 BR BKN004
BECMG 0807/0809 BKN015
BECMG 0809/0811 BKN030

FVHA

TAF not available.

FAWK 07/04/2020 UTC

TAF FAWK 070733Z 0707/0718 NIL

FABL 07/04/2020 UTC

TAF FABL 070400Z 0706/0806 VRB03KT CAVOK TX18/0712Z TN04/0804Z

FALE 07/04/2020 UTC

TAF FALE 070400Z 0706/0812 20012KT 9999 BKN020 OVC030
TX22/0812Z TN16/0804Z
PROB30 TEMPO 0706/0710 5000 -RA BKN005 BKN010
PROB40 TEMPO 0714/0721 5000 -SHRA BKN010
FM081000 14010KT 9999 SCT040

YPCC 07/04/2020 UTC

TAF YPCC 070518Z 0706/0806
22010KT 9999 -SHRA SCT020 BKN040
INTER 0706/0802 3000 SHRA BKN010
RMK
T 30 30 28 28 Q 1009 1007 1008 1010

United States (includes Hawaii) and Mexican emergency/alternates

The availability of aerodrome forecasts from overseas locations is dependent on the regular international exchange of data. Some locations may at times be absent. If this problem persists, please advise webav@bom.gov.au

 back to top

PHNL 07/04/2020 UTC

TAF PHNL 070830Z 0709/0812 VRB04KT P6SM FEW025 SCT040 SCT070
FM072000 22010KT P6SM FEW025 SCT040 BKN070

PHLI 07/04/2020 UTC

TAF PHLI 070539Z 0706/0806 VRB06KT P6SM SCT035
FM071800 24006KT P6SM FEW025 BKN045
FM072200 17012KT P6SM VCSH SCT025 BKN045
FM080400 28012KT P6SM VCSH FEW025 BKN045

PHOG 07/04/2020 UTC

TAF AMD PHOG 070706Z 0707/0806 VRB03KT P6SM VCSH FEW009 BKN025 BKN050
TEMPO 0707/0710 4SM SHRA BKN009 OVC025
FM072000 33009KT P6SM VCSH SCT025 BKN050
AMD LTD TO VIS AND WIND 0709/0716

PHTO 07/04/2020 UTC

TAF PHTO 070539Z 0706/0806 VRB05KT P6SM FEW035
FM072000 12011KT P6SM VCSH SCT020 BKN035

PKMJ 07/04/2020 UTC

TAF PKMJ 070552Z 0706/0806 07013KT P6SM VCSH SCT015 BKN050 OVC100

KLAX 07/04/2020 UTC

TAF KLAX 070540Z 0706/0812 26006KT P6SM VCSH BKN050
FM071900 25010KT 6SM -SHRA BR OVC030
FM080300 26006KT P6SM VCSH BKN040
FM080800 VRB03KT P6SM BKN050

KONT 07/04/2020 UTC

TAF KONT 070838Z 0709/0812 VRB03KT P6SM VCSH SCT006 OVC035
TEMPO 0709/0713 4SM -RA BKN006
FM071800 VRB04KT 5SM RA SCT008 OVC015
FM072100 25008KT 3SM RA SCT008 OVC015
FM080500 VRB04KT 6SM -SHRA SCT015 OVC025

KPMD 07/04/2020 UTC

TAF KPMD 070540Z 0706/0806 24008KT P6SM BKN040
FM071800 06008KT P6SM -SHRA BKN040
FM080300 14008KT P6SM VCSH BKN035

KSAN 07/04/2020 UTC

TAF KSAN 070712Z 0707/0812 25004KT 2SM -RA BR SCT004 BKN014 OVC020
FM070830 22007KT P6SM -SHRA SCT015 OVC025
FM072000 22007KT 4SM SHRA BKN015 OVC025
FM080500 VRB04KT P6SM -SHRA SCT015 OVC025

KLAS 07/04/2020 UTC

TAF KLAS 070548Z 0706/0812 28005KT P6SM VCSH BKN050 OVC060
FM071100 VRB06KT P6SM -SHRA BKN040 OVC050
TEMPO 0715/0719 -RA SCT025 BKN030
FM072300 16008KT P6SM VCSH SCT050 BKN080
FM080300 19006KT P6SM SCT080 BKN200

KOAK 07/04/2020 UTC

TAF KOAK 070522Z 0706/0812 24003KT P6SM SCT050 SCT200
FM071200 16004KT P6SM SCT035 BKN200
FM072100 28010KT P6SM FEW030 SCT050 SCT200
FM080500 28006KT P6SM SCT200

KSFO 07/04/2020 UTC

TAF KSFO 070522Z 0706/0812 23004KT P6SM SCT050 SCT200
FM071200 VRB03KT P6SM SCT035 BKN200
FM072100 30009KT P6SM FEW035 SCT200
FM080400 28005KT P6SM SCT200

KSMF 07/04/2020 UTC

TAF KSMF 070520Z 0706/0806 VRB04KT P6SM SCT060 BKN120
FM070800 15005KT P6SM BKN060
TEMPO 0708/0711 P6SM -SHRA OVC050
FM071900 VRB04KT P6SM SCT050 SCT100

KSCK 07/04/2020 UTC

TAF KSCK 070520Z 0706/0806 VRB05KT P6SM SCT050
FM080100 34006KT P6SM SCT250

KFAT 07/04/2020 UTC

TAF KFAT 070520Z 0706/0806 31005KT P6SM FEW025 SCT050 BKN090
FM080400 32004KT 6SM -RA SCT025 BKN050 OVC090

KJFK 07/04/2020 UTC

TAF KJFK 070832Z 0709/0812 31006KT P6SM SCT200
FM071500 23006KT P6SM SCT150
FM071800 18011KT P6SM BKN100
FM080200 19007KT P6SM BKN050 PROB30 0805/0809 5SM -SHRA
OVC035
FM080900 22007KT 5SM -SHRA OVC025

KPHL 07/04/2020 UTC

TAF KPHL 070537Z 0706/0812 00000KT P6SM SCT150
FM071600 21005KT P6SM BKN070
FM072300 22006KT P6SM VCSH OVC100
FM080600 VRB04KT P6SM -SHRA OVC030

KPIT 07/04/2020 UTC

TAF KPIT 070531Z 0706/0812 19002KT P6SM OVC050
FM071000 20003KT P6SM VCSH OVC030
FM071200 19003KT 5SM SHRA OVC015
FM072200 24006KT P6SM OVC035 PROB30 0722/0801 P6SM TSRA
BKN025CB
FM080400 23004KT P6SM -SHRA VCTS BKN015CB
FM081100 28006KT P6SM VCSH BKN008

KDEN 07/04/2020 UTC

TAF KDEN 070540Z 0706/0812 21007KT P6SM FEW120
FM071300 19008KT P6SM FEW120 SCT220
FM071900 30014G24KT P6SM FEW120 SCT220
FM072300 35012G20KT P6SM SCT120 SCT200
FM080400 21010KT P6SM FEW120 SCT200

KMCI 07/04/2020 UTC

TAF KMCI 070520Z 0706/0806 19011KT P6SM OVC035
FM071000 20010KT 5SM BR OVC012
FM071700 23009KT P6SM BKN035
FM072200 27006KT P6SM SCT250

KDFW 07/04/2020 UTC

TAF KDFW 070522Z 0706/0812 18005KT 5SM BR OVC050
TEMPO 0708/0712 5SM BR OVC025
FM071500 21009KT P6SM OVC090
FM072100 23012KT P6SM BKN250
FM080200 20007KT P6SM BKN250

KAUS 07/04/2020 UTC

TAF KAUS 070824Z 0708/0812 VRB03KT 3SM BR OVC002
TEMPO 0708/0711 1/2SM FG
FM071400 22006KT 6SM BR BKN013
FM071700 20014KT P6SM BKN100

KELP 07/04/2020 UTC

TAF KELP 070529Z 0706/0806 21010KT P6SM SCT100 OVC250
FM071200 28008KT P6SM SCT250

KIAH 07/04/2020 UTC

TAF KIAH 070520Z 0706/0812 11004KT 1SM BR OVC003
TEMPO 0706/0710 1/4SM FG
FM071000 13003KT 1/2SM FG OVC002
FM071500 22007KT P6SM SCT010 OVC015
FM071800 20007KT P6SM VCSH BKN025 OVC050
FM072100 19007KT P6SM SCT050 BKN080
FM080200 19004KT P6SM MIFG OVC250

KSAT 07/04/2020 UTC

TAF AMD KSAT 070632Z 0707/0812 18005KT 1/2SM FG OVC003
FM071400 20005KT 6SM BR OVC007
FM071700 22008KT P6SM BKN015
FM071800 19008KT P6SM BKN100

KTUS 07/04/2020 UTC

TAF KTUS 070520Z 0706/0806 VRB03KT P6SM FEW100 SCT250
FM071700 18007KT P6SM SKC
FM072100 22010KT P6SM SKC
FM080300 VRB03KT P6SM SKC

MMCU 07/04/2020 UTC

TAF MMCU 070448Z 0706/0806 00000KT P6SM SCT035CB BKN100
TEMPO 0706/0709 5SM TSRA BKN020CB
FM071000 00000KT P6SM SCT100 BKN200
FM071800 24010KT P6SM BKN200
FM080300 22008KT P6SM SCT939 BKN200

MMHO 07/04/2020 UTC

TAF MMHO 070408Z 0706/0806 24010KT P6SM SCT100 SCT200
FM071600 14005KT P6SM BKN100 BKN200
FM072100 24010KT P6SM BKN100 OVC200
FM080300 24005KT P6SM SCT100 BKN200

MMLT 07/04/2020 UTC

TAF MMLT 070450Z 0706/0806 16005KT P6SM SCT080 BKN250
FM071600 30010KT P6SM SCT080 BKN250
FM080200 20005KT P6SM BKN200

MMSD 07/04/2020 UTC

TAF MMSD 070450Z 0706/0806 30005KT P6SM SCT120 OVC250
FM071600 30010KT P6SM SCT120 BKN250
FM080300 30005KT P6SM OVC250

Papua New Guinea, Southwest Pacific

The availability of aerodrome forecasts from overseas locations is dependent on the regular international exchange of data. Some locations may at times be absent. If this problem persists, please advise webav@bom.gov.au

 back to top

NWWW 07/04/2020 UTC

TAF NWWW 070500Z 0706/0806 13012KT 9999 BKN025 PROB30 TEMPO 0708/0720
SHRA BKN014 BECMG 0707/0709 VRB02KT BECMG 0722/0724 15012KT

NFFN 07/04/2020 UTC

TAF NFFN 070530Z 0706/0806
04010KT 9999 -RA SCT020 BKN040 OVC100
TEMPO 0706/0708 3000 TSRA BKN015 FEW018CB
TEMPO 0708/0717 1500 +TSRA BKN015 FEW017CB
BECMG 0710/0712 35025G40KT
FM071500 34035G50KT 7000 RA BKN018 OVC045
TEMPO 0715/0724 34040G60KT 1000 +TSRA BKN007 SCT012CB
FM080000 34035G50KT 7000 RA BKN018 OVC045

NFNA 07/04/2020 UTC

TAF NFNA 070524Z 0706/0806
NIL

NFTF 07/04/2020 UTC

TAF NFTF 070523Z 0706/0806
06008KT 8000 -RA SCT008 BKN016 OVC100
TEMPO 0706/0714 3000 TSRA BKN015 FEW017CB
TEMPO 0710/0806 1500 +TSRA BKN008 SCT015CB

NSTU 07/04/2020 UTC

TAF AMD NSTU 070812Z 0708/0806 07007KT P6SM FEW020 SCT040 BKN100
TEMPO 0708/0710 5SM SHRA FEW007 BKN015 OVC035
FM071500 03007KT P6SM VCSH SCT020 BKN040 BKN100
AMD NOT SKED

NVVV 07/04/2020 UTC

TAF NVVV 070430Z 0706/0806 13012KT 9999 SCT020 BKN100
INTER 0706/0712 9000 SHRA BKN016 OVC090

NCRG 07/04/2020 UTC

TAF NCRG 070521Z 0706/0806
07008KT 9999 SCT020 BKN100
PROB40 TEMPO 0722/0806 5000 SHRA BKN015

NTAA 07/04/2020 UTC

TAF NTAA 070500Z 0706/0812 VRB02KT 9999 FEW023 BECMG 0718/0720
05012KT BECMG 0801/0804 VRB02KT

NTTG

TAF not available.

NTTO

TAF not available.

NSFA 07/04/2020 UTC

TAF NSFA 070524Z 0706/0806
01010KT 9999 SCT018 SCT045 BKN100
PROB40 TEMPO 0709/0724 5000 TSRA FEW018CB

ANYN

TAF not available.

AGGH 07/04/2020 UTC

TAF AGGH 070510Z 0706/0806 27010KT 9999 SCT019

T 31 28 27 26 Q 1004 1006 1007 1005

AGGM 07/04/2020 UTC

TAF AGGM 070510Z 0706/0806 23010KT 9999 -SHRA SCT017 BKN028

Q 1006 1008 1009 1007

AGGN 07/04/2020 UTC

TAF AGGN 070510Z 0706/0806 23010KT 9999 -SHRA SCT017 BKN028

Q 1006 1008 1009 1007

AYPY 07/04/2020 UTC

TAF AYPY 070401Z 0706/0806 18008KT 9999 SCT025
FM071000 VRB03KT 9999 SCT040 T 31 29 27 25 Q 1006 1007 1009
1008

AYNZ

TAF not available.

AYMD

TAF not available.

AYMH

TAF not available.

AYTA

TAF not available.

PKMJ 07/04/2020 UTC

TAF PKMJ 070552Z 0706/0806 07013KT P6SM VCSH SCT015 BKN050 OVC100

NGTA 07/04/2020 UTC

TAF NGTA 070524Z 0706/0806
10008KT 9999 SCT019 BKN100

PTRO 07/04/2020 UTC

TAF PTRO 070552Z 0706/0806 08010KT P6SM VCSH SCT016 BKN120

YLHI 07/04/2020 UTC

TAF AMD YLHI 070515Z 0706/0806
17014KT 9999 -SHRA SCT025
INTER 0706/0715 5000 SHRA BKN015
RMK FM070600 MOD TURB BLW 5000FT TL071200
T 22 20 20 20 Q 1015 1017 1018 1017

YSNF 07/04/2020 UTC

TAF AMD YSNF 070515Z 0706/0806
08011KT 9999 FEW020 SCT030
FM071300 36007KT 9999 FEW020 SCT030
FM072100 29008KT 9999 -SHRA SCT020
FM080000 19014KT 9999 -SHRA SCT020
INTER 0711/0803 4000 SHRA BKN015
RMK
T 21 20 20 19 Q 1012 1013 1014 1012

Indonesia, Timor Leste, Papua New Guinea

The availability of aerodrome forecasts from overseas locations is dependent on the regular international exchange of data. Some locations may at times be absent. If this problem persists, please advise webav@bom.gov.au

 back to top

WAAA 07/04/2020 UTC

TAF WAAA 070500Z 0706/0812 30010KT 9999 SCT018
TEMPO 0707/0711 7000 -TSRA FEW017CB
BECMG 0712/0714 11005KT 8000

WAMM 07/04/2020 UTC

TAF WAMM 070500Z 0706/0812 36010KT 9999 SCT021
BECMG 0709/0711 VRB02KT
BECMG 0723/0801 36010KT

WAMP

TAF not available.

WAJJ 07/04/2020 UTC

TAF WAJJ 070500Z 0706/0806 28015KT 9999 SCT013
TEMPO 0706/0709 VCSH FEW012CB FEW013
BECMG 0709/0711 27005KT
PROB40 TEMPO 0710/0716 7000 -RA
BECMG 0715/0717 00000KT

WAPP 07/04/2020 UTC

TAF WAPP 070600Z 0706/0806 35008KT 9999 SCT019
BECMG 0709/0911 14003KT

WABB 07/04/2020 UTC

TAF WABB 070500Z 0706/0812 25008KT 9999 SCT018
TEMPO 0707/0711 5000 RA FEW017CB
BECMG 0710/0712 00000KT

WPDL 07/04/2020 UTC

TAF AMD WPDL 070720Z 0708/0720
15006KT 9999 SCT025
TEMPO 0708/0712 VRB20G35KT 1000 TSRA BKN010 SCT035CB
RMK
T 27 26 25 25 Q 1008 1009 1011 1009

WATT 07/04/2020 UTC

TAF WATT 070500Z 0706/0806 15008KT 9000 BKN016
PROB40 0707/0710 31010KT 5000 RA
BECMG 0713/0714 SCT017

WIII 07/04/2020 UTC

TAF WIII 070500Z 0706/0812 32010KT 9999 SCT020 TEMPO 0707/0711 3000
-TSRA FEW018CB BECMG 0713/0715 19004KT

WIHH 07/04/2020 UTC

TAF WIHH 070500Z 0706/0806 27010KT 6000 SCT022
TEMPO 0708/0711 3000 -TSRA FEW018CB BKN019
BECMG 0712/0714 18005KT 5000 HZ

WIMM 07/04/2020 UTC

TAF WIMM 070500Z 0706/0806 01008KT 9999 SCT017
BECMG 0713/0714 VRB03KT 3000 HZ
BECMG 0802/0804 35006KT 9999

WARR 07/04/2020 UTC

TAF WARR 070500Z 0706/0806 12010KT 9999 SCT020 PROB40 TEMPO 0707/0711 30010KT 4000 TSRA SCT018CB BECMG 0712/0714 25005KT 3000 HZ BECMG 0801/0803 09010KT 9999 NSW

WADD 07/04/2020 UTC

TAF WADD 070500Z 0706/0806 33005KT 9999 SCT016
BECMG 0711/0713 VRB05KT

AYPY 07/04/2020 UTC

TAF AYPY 070401Z 0706/0806 18008KT 9999 SCT025
FM071000 VRB03KT 9999 SCT040 T 31 29 27 25 Q 1006 1007 1009
1008

AYNZ

TAF not available.

AYMH

TAF not available.

AYMD

TAF not available.

AYHK

TAF not available.

AYTK

TAF not available.

AYVN

TAF not available.

AYWK

TAF not available.

AYGA

TAF not available.

AYDU

TAF not available.

AYMS

TAF not available.

AYRB

TAF not available.

AYTB

TAF not available.

AYKI

TAF not available.

AYKT

TAF not available.

AYBK

TAF not available.

AYKM

TAF not available.

AYKY

TAF not available.

AYMO

TAF not available.

AYKV

TAF not available.

Accessing this Service

By entering this site, you acknowledge that this information is produced solely for use by the aviation industry, and you are aware that any information for the purposes of flight planning should be obtained from Airservices Australia.